Cleveland, OH

12:10 AM EDT on May 06, 2015 (GMT -0400)
APRSWXNET | | Change Station
CLOSE
Current Station
Personal Weather Station
Location: Cleveland, OH
Elevation: 690 ft
Nearby Weather Stations

Elev 690 ft 41.47 °N, 81.65 °W | Updated 39 minutes ago

Overcast
Overcast
57 °F
Feels Like 57 °F
N
1
Wind Variable Wind from NE
Gusts 0.0 mph

Today
High -- | Low -- °F
--% Chance of Precip.
Yesterday
High -- | Low -- °F
Precip. -- in
6:17 AM 8:29 PM
Waning Gibbous, 96% visible
Pressure 30.24 in
Visibility 2.5 miles
Clouds Scattered Clouds 4400 ft
Mostly Cloudy 7000 ft
Overcast 9000 ft
Dew Point 52 °F
Humidity 82%
Rainfall in
Snow Depth Not available.
UV 0 out of 12
Pollen 2.20 out of 12
Air Quality Not available.
Flu Activity Regional
METAR KBKL 060353Z 04006KT 2 1/2SM -RA BR SCT044 BKN070 OVC090 12/11 A3023 RMK AO2 LTG DSNT E AND W TSB10E28 SLP239 P0052 T01170111

More Conditions Fewer Conditions

Pressure 30.24 in
Visibility 2.5 miles
Clouds Scattered Clouds 4400 ft
Mostly Cloudy 7000 ft
Overcast 9000 ft
Dew Point 52 °F
Humidity 82%
Rainfall in
Snow Depth Not available.
UV 0 out of 12
Pollen 2.20 out of 12
Air Quality Not available.
Flu Activity Regional
METAR KBKL 060353Z 04006KT 2 1/2SM -RA BR SCT044 BKN070 OVC090 12/11 A3023 RMK AO2 LTG DSNT E AND W TSB10E28 SLP239 P0052 T01170111

More Conditions Fewer Conditions

10-Day Weather Forecast

Almanac

Astronomy

May. 06, 2015 Rise Set
Actual Time
Civil Twilight
Nautical Twilight
Astronomical Twilight
Moon
Length of Visible Light
Length of Day
Tomorrow will be .
, % of the Moon is Illuminated

Today's Extremes

State Highs State Lows

Community

WunderPhotos

Upload Photos

1,819,021 photos uploaded!

WunderBlogs® & News

Nearby

Air Quality

  Air Quality AQ Index Pollutant
Not available.

Snow Depth

Station Depth Elevation

Earthquake Activity

City Distance Mag. Time & Date
Minimum magnitude displayed is 2.5.

Coastal Water Temperatures

Place Temperature

Stations

Nearby Weather Stations

Station Location Temp. Windchill Dew Point Humidity Wind Precip. Elev Updated Type